Time;durP1;ratioP1;P1;durP2;ratioP2;P2;SDS_P1;SDS_P2;PMS_P1;PMS_P2;Temp;Humidity;BMP_temperature;BMP_pressure;BME280_temperature;BME280_humidity;BME280_pressure;Samples;Min_cycle;Max_cycle;Signal;HPM_P1;HPM_P2
2023/04/06 00:01:35;;;;;;;15.05;8.65;;;;;;;4.84;55.19;100970.91;4127422;28;20046;-76
2023/04/06 00:03:38;;;;;;;16.60;8.63;;;;;;;4.80;55.33;100969.00;4130437;28;20485;-77
2023/04/06 00:05:41;;;;;;;13.50;8.40;;;;;;;4.77;55.26;100963.72;4131562;28;20042;-76
2023/04/06 00:07:44;;;;;;;13.00;8.05;;;;;;;4.73;55.56;100961.81;4131385;28;20034;-76
2023/04/06 00:09:47;;;;;;;16.27;8.77;;;;;;;4.68;56.20;100966.75;4131482;28;20145;-76
2023/04/06 00:11:50;;;;;;;15.48;7.50;;;;;;;4.66;56.33;100970.09;4132403;28;20437;-75
2023/04/06 00:13:53;;;;;;;14.50;8.63;;;;;;;4.70;55.75;100961.66;4130982;28;20397;-76
2023/04/06 00:15:56;;;;;;;20.30;8.88;;;;;;;4.71;55.70;100964.31;4129478;28;20143;-75
2023/04/06 00:18:00;;;;;;;13.85;8.13;;;;;;;4.74;56.06;100962.72;4130646;28;21306;-76
2023/04/06 00:20:04;;;;;;;14.88;8.13;;;;;;;4.69;56.45;100960.78;4130436;28;20038;-75
2023/04/06 00:22:07;;;;;;;13.25;8.90;;;;;;;4.72;56.50;100960.06;4126496;28;20045;-75
2023/04/06 00:24:10;;;;;;;15.10;8.02;;;;;;;4.76;56.17;100958.50;4132043;28;20048;-77
2023/04/06 00:26:13;;;;;;;15.10;8.80;;;;;;;4.74;56.38;100952.41;4128339;28;20046;-77
2023/04/06 00:28:25;;;;;;;13.02;8.75;;;;;;;4.72;56.37;100945.47;4129416;28;20051;-77
2023/04/06 00:30:28;;;;;;;13.75;8.57;;;;;;;4.72;56.47;100949.75;4126531;28;20058;-76
2023/04/06 00:32:31;;;;;;;15.23;9.23;;;;;;;4.72;55.78;100949.75;4129889;28;20104;-77
2023/04/06 00:34:35;;;;;;;14.50;8.98;;;;;;;4.66;55.47;100945.22;4145041;28;20582;-76
2023/04/06 00:36:38;;;;;;;10.45;8.02;;;;;;;4.55;56.14;100952.41;4131066;28;20521;-76
2023/04/06 00:38:41;;;;;;;15.48;8.88;;;;;;;4.52;56.50;100943.69;4119736;28;20035;-76
2023/04/06 00:40:45;;;;;;;15.98;8.68;;;;;;;4.52;56.51;100952.28;4116660;28;20070;-76
2023/04/06 00:42:48;;;;;;;13.90;8.75;;;;;;;4.51;57.47;100950.53;4122757;28;20113;-76
2023/04/06 00:44:51;;;;;;;17.98;8.50;;;;;;;4.53;57.47;100950.59;4136174;28;20042;-78
2023/04/06 00:46:54;;;;;;;16.73;9.35;;;;;;;4.46;58.57;100954.56;4144898;28;20038;-77
2023/04/06 00:48:57;;;;;;;16.45;8.95;;;;;;;4.44;59.00;100945.91;4152905;28;20056;-77
2023/04/06 00:51:02;;;;;;;16.30;9.48;;;;;;;4.41;59.40;100945.78;4130638;28;20567;-78
2023/04/06 00:53:05;;;;;;;13.18;8.70;;;;;;;4.38;59.62;100948.19;4129567;28;20042;-77
2023/04/06 00:55:09;;;;;;;14.45;9.38;;;;;;;4.38;59.88;100948.19;4130463;28;20041;-77
2023/04/06 00:57:16;;;;;;;16.15;8.73;;;;;;;4.37;59.66;100941.28;4130592;28;20035;-76
2023/04/06 00:59:21;;;;;;;13.93;8.75;;;;;;;4.37;59.84;100936.13;4130236;28;20048;-77
2023/04/06 01:01:25;;;;;;;14.75;9.70;;;;;;;4.38;59.50;100937.91;4130018;28;20111;-77
2023/04/06 01:03:30;;;;;;;18.40;9.02;;;;;;;4.37;59.79;100936.13;4145097;28;20026;-77
2023/04/06 01:05:34;;;;;;;13.13;8.80;;;;;;;4.36;59.39;100937.81;4130187;28;20089;-78
2023/04/06 01:07:38;;;;;;;13.50;9.73;;;;;;;4.34;59.19;100930.84;4130148;28;20073;-77
2023/04/06 01:09:46;;;;;;;12.98;8.68;;;;;;;4.30;59.17;100934.06;4130766;28;20042;-77
2023/04/06 01:11:56;;;;;;;15.88;9.13;;;;;;;4.26;59.59;100929.59;4113882;28;20550;-77
2023/04/06 01:14:04;;;;;;;16.13;9.23;;;;;;;4.26;59.01;100932.16;4125238;28;20062;-77
2023/04/06 01:16:22;;;;;;;11.95;8.68;;;;;;;4.26;59.72;100927.00;4146228;28;20042;-77
2023/04/06 01:18:39;;;;;;;13.07;9.25;;;;;;;4.24;59.65;100924.38;4128838;28;20042;-77
2023/04/06 01:20:52;;;;;;;13.98;8.95;;;;;;;4.21;60.27;100925.94;4129956;28;20034;-77
2023/04/06 01:22:57;;;;;;;13.95;8.30;;;;;;;4.19;60.25;100930.97;4128300;28;20381;-77
2023/04/06 01:25:00;;;;;;;12.05;8.82;;;;;;;4.15;60.50;100923.94;4130456;28;20492;-77
2023/04/06 01:27:12;;;;;;;13.18;8.43;;;;;;;4.13;60.34;100930.69;4126972;28;20061;-77
2023/04/06 01:29:40;;;;;;;18.00;10.38;;;;;;;4.10;60.20;100923.69;4133433;28;20070;-77
2023/04/06 01:31:45;;;;;;;17.30;10.68;;;;;;;4.10;59.99;100923.69;4131690;28;20110;-77
2023/04/06 01:33:48;;;;;;;16.33;9.65;;;;;;;4.12;60.32;100916.09;4146651;28;20038;-77
2023/04/06 01:35:54;;;;;;;15.65;9.60;;;;;;;4.14;59.81;100911.88;4145190;28;20705;-76
2023/04/06 01:38:00;;;;;;;13.73;9.63;;;;;;;4.15;59.62;100916.22;4128383;28;20042;-76
2023/04/06 01:40:08;;;;;;;17.50;9.93;;;;;;;4.12;60.11;100911.81;4106513;28;20039;-77
2023/04/06 01:42:22;;;;;;;;;;;;;;;4.02;60.40;100913.06;4131217;28;20434;-77
2023/04/06 01:44:26;;;;;;;20.83;10.77;;;;;;;4.06;60.16;100908.94;4124915;28;19922;-76
2023/04/06 01:46:40;;;;;;;15.55;9.65;;;;;;;4.10;59.38;100913.41;4113551;28;20045;-77
2023/04/06 01:48:45;;;;;;;16.17;9.27;;;;;;;4.09;59.64;100901.38;4128088;28;20137;-77
2023/04/06 01:50:54;;;;;;;12.02;9.43;;;;;;;4.09;60.01;100903.94;4120794;28;20042;-78
2023/04/06 01:53:05;;;;;;;15.27;9.25;;;;;;;4.10;59.99;100905.69;4123672;28;20488;-76
2023/04/06 01:55:09;;;;;;;19.90;10.02;;;;;;;4.09;60.10;100909.09;4128859;28;20096;-77
2023/04/06 01:57:30;;;;;;;15.32;9.52;;;;;;;4.08;60.07;100911.59;4130484;28;20125;-77
2023/04/06 01:59:43;;;;;;;14.13;9.50;;;;;;;4.04;60.25;100910.56;4126780;28;20042;-77
2023/04/06 02:01:54;;;;;;;14.18;9.40;;;;;;;3.98;60.21;100905.13;4113490;28;20035;-77
2023/04/06 02:03:59;;;;;;;14.93;9.38;;;;;;;3.93;60.30;100906.56;4125581;28;20063;-77
2023/04/06 02:06:03;;;;;;;12.68;9.05;;;;;;;3.80;60.59;100908.56;4127753;28;20042;-77
2023/04/06 02:08:12;;;;;;;16.13;9.88;;;;;;;3.74;60.97;100910.84;4144195;28;20030;-77
2023/04/06 02:10:15;;;;;;;15.25;10.38;;;;;;;3.65;61.41;100915.50;4138507;28;20034;-77
2023/04/06 02:12:20;;;;;;;20.45;10.43;;;;;;;3.69;61.62;100908.84;4101051;28;20051;-77
2023/04/06 02:14:26;;;;;;;13.32;9.35;;;;;;;3.72;61.70;100915.00;4144690;28;20091;-76
2023/04/06 02:16:33;;;;;;;17.52;10.00;;;;;;;3.72;61.44;100912.44;4113429;28;20508;-76
2023/04/06 02:18:36;;;;;;;12.30;9.13;;;;;;;3.73;61.98;100911.66;4127949;28;20053;-77
2023/04/06 02:20:38;;;;;;;16.92;8.80;;;;;;;3.78;62.00;100907.63;4130036;28;20042;-77
2023/04/06 02:22:41;;;;;;;13.05;9.60;;;;;;;3.77;61.84;100911.00;4097943;28;20054;-77
2023/04/06 02:24:46;;;;;;;16.50;9.05;;;;;;;3.79;61.92;100905.91;4127555;28;20034;-78
2023/04/06 02:26:49;;;;;;;14.65;9.07;;;;;;;3.78;61.62;100905.06;4128668;28;20436;-77
2023/04/06 02:28:52;;;;;;;16.08;9.60;;;;;;;3.74;61.49;100905.69;4127140;28;20042;-77
2023/04/06 02:30:55;;;;;;;15.00;8.63;;;;;;;3.75;61.16;100904.91;4135785;28;20043;-77
2023/04/06 02:33:03;;;;;;;13.45;8.27;;;;;;;3.76;61.17;100898.94;4127204;28;20129;-77
2023/04/06 02:35:14;;;;;;;13.38;9.30;;;;;;;3.72;61.15;100898.72;4136642;28;20034;-77
2023/04/06 02:37:20;;;;;;;17.90;10.10;;;;;;;3.67;61.08;100894.22;4112974;28;20066;-78
2023/04/06 02:39:23;;;;;;;;;;;;;;;3.51;61.96;100901.13;4117838;28;20051;-77
2023/04/06 02:41:27;;;;;;;16.45;9.50;;;;;;;3.51;62.03;100902.00;4129434;28;19922;-77
2023/04/06 02:43:34;;;;;;;15.63;9.00;;;;;;;3.49;61.81;100909.63;4114776;28;20054;-77
2023/04/06 02:45:47;;;;;;;14.05;9.02;;;;;;;3.44;61.77;100899.91;4125411;28;20648;-77
2023/04/06 02:47:50;;;;;;;13.85;9.05;;;;;;;3.46;61.54;100894.06;4108554;28;20133;-76
2023/04/06 02:49:54;;;;;;;13.07;8.95;;;;;;;3.49;61.48;100894.22;4112700;28;20039;-77
2023/04/06 02:51:57;;;;;;;13.85;9.50;;;;;;;3.51;61.08;100894.28;4125009;28;20093;-77
2023/04/06 02:54:04;;;;;;;16.65;9.60;;;;;;;3.51;60.96;100890.84;4110706;28;20050;-77
2023/04/06 02:56:08;;;;;;;12.90;8.38;;;;;;;3.49;60.96;100896.78;4112840;28;20624;-76
2023/04/06 02:58:25;;;;;;;14.55;8.85;;;;;;;3.54;60.93;100890.97;4112980;28;20415;-77
2023/04/06 03:00:31;;;;;;;14.07;9.38;;;;;;;3.55;60.80;100887.59;4111893;28;20262;-77
2023/04/06 03:02:35;;;;;;;13.25;8.27;;;;;;;3.56;59.88;100884.22;4127452;28;20053;-76
2023/04/06 03:04:43;;;;;;;15.20;8.73;;;;;;;3.47;60.92;100892.34;4122690;28;20639;-77
2023/04/06 03:06:56;;;;;;;10.60;8.15;;;;;;;3.43;60.57;100882.72;4112045;28;20465;-77
2023/04/06 03:09:10;;;;;;;11.48;8.15;;;;;;;3.40;60.54;100896.31;4107060;28;20513;-76
2023/04/06 03:11:16;;;;;;;13.23;8.48;;;;;;;3.37;60.79;100890.13;4127371;28;20054;-77
2023/04/06 03:13:20;;;;;;;17.67;9.10;;;;;;;3.39;61.07;100889.41;4114158;28;20499;-77
2023/04/06 03:15:27;;;;;;;15.02;8.95;;;;;;;3.41;60.70;100890.34;4126257;28;20034;-77
2023/04/06 03:17:40;;;;;;;15.57;9.18;;;;;;;3.42;60.84;100889.56;4126953;28;20428;-79
2023/04/06 03:19:48;;;;;;;12.20;8.57;;;;;;;3.41;60.71;100890.34;4105850;28;20497;-77
2023/04/06 03:21:51;;;;;;;15.23;9.80;;;;;;;3.40;60.72;100893.75;4120533;28;20404;-77
2023/04/06 03:23:56;;;;;;;13.20;9.45;;;;;;;3.39;60.35;100891.06;4120514;28;20500;-77
2023/04/06 03:25:59;;;;;;;11.85;8.43;;;;;;;3.41;60.49;100885.22;4129312;28;20570;-77
2023/04/06 03:28:02;;;;;;;12.65;8.70;;;;;;;3.39;60.25;100891.97;4130438;28;20042;-76
2023/04/06 03:30:08;;;;;;;15.82;9.60;;;;;;;3.40;60.28;100888.63;4128037;28;20030;-76
2023/04/06 03:32:12;;;;;;;13.00;10.05;;;;;;;3.35;60.43;100895.19;4109162;28;20401;-77
2023/04/06 03:34:17;;;;;;;18.35;9.45;;;;;;;3.31;60.18;100894.19;4126683;28;20042;-76
2023/04/06 03:36:20;;;;;;;11.30;8.10;;;;;;;3.30;59.84;100897.53;4127536;28;20034;-76
2023/04/06 03:38:23;;;;;;;14.13;9.80;;;;;;;3.31;60.01;100899.31;4126562;28;20138;-76
2023/04/06 03:40:26;;;;;;;14.25;9.85;;;;;;;3.31;60.00;100903.56;4110174;28;20560;-76
2023/04/06 03:42:29;;;;;;;14.02;8.85;;;;;;;3.30;59.91;100896.63;4129115;28;20454;-76
2023/04/06 03:44:38;;;;;;;12.73;8.88;;;;;;;3.26;60.66;100902.44;4118325;28;20042;-75
2023/04/06 03:46:42;;;;;;;14.02;9.30;;;;;;;3.21;60.55;100897.06;4149573;28;20061;-76
2023/04/06 03:48:49;;;;;;;14.50;10.15;;;;;;;3.21;60.25;100901.31;4117451;28;20145;-75
2023/04/06 03:50:54;;;;;;;11.27;8.32;;;;;;;3.16;60.46;100906.22;4110456;28;20046;-77
2023/04/06 03:52:57;;;;;;;15.75;9.63;;;;;;;3.19;60.59;100908.06;4124790;28;20043;-77
2023/04/06 03:55:00;;;;;;;16.25;10.15;;;;;;;3.14;60.61;100911.28;4122054;28;20089;-78
2023/04/06 03:57:03;;;;;;;14.20;9.32;;;;;;;3.09;60.52;100912.72;4105886;28;20046;-76
2023/04/06 03:59:06;;;;;;;13.13;8.90;;;;;;;3.05;60.99;100909.91;4120218;28;20041;-76
2023/04/06 04:01:10;;;;;;;13.73;9.18;;;;;;;3.03;60.84;100912.41;4110975;28;20400;-76
2023/04/06 04:03:13;;;;;;;12.25;9.68;;;;;;;3.08;60.41;100916.13;4122893;28;20042;-77
2023/04/06 04:05:19;;;;;;;16.92;9.80;;;;;;;3.08;60.89;100915.22;4129077;28;20039;-77
2023/04/06 04:07:22;;;;;;;15.88;9.63;;;;;;;3.03;60.20;100912.41;4124420;28;20122;-77
2023/04/06 04:09:28;;;;;;;13.50;9.07;;;;;;;2.94;60.84;100910.25;4128478;28;20042;-77
2023/04/06 04:11:31;;;;;;;12.88;8.95;;;;;;;2.99;60.94;100912.19;4127812;28;20397;-77
2023/04/06 04:13:36;;;;;;;14.55;9.93;;;;;;;2.99;60.55;100915.63;4120141;28;20125;-78
2023/04/06 04:15:41;;;;;;;;;;;;;;;2.90;61.57;100915.16;4112613;28;20043;-77
2023/04/06 04:17:46;;;;;;;18.52;9.75;;;;;;;2.92;60.85;100917.00;4130639;28;19922;-77
2023/04/06 04:19:49;;;;;;;16.33;9.00;;;;;;;2.99;60.82;100928.47;4104285;28;20051;-77
2023/04/06 04:21:54;;;;;;;15.10;9.73;;;;;;;3.06;60.39;100925.41;4123816;28;20038;-78
2023/04/06 04:24:06;;;;;;;12.43;8.68;;;;;;;3.07;60.46;100926.31;4126097;28;20524;-78
2023/04/06 04:26:11;;;;;;;12.77;8.60;;;;;;;3.05;60.71;100926.25;4110253;28;20042;-77
2023/04/06 04:28:15;;;;;;;13.35;9.18;;;;;;;3.05;59.98;100928.81;4133966;28;20400;-78
2023/04/06 04:30:19;;;;;;;13.77;9.38;;;;;;;3.05;60.94;100931.38;4112261;28;20133;-78
2023/04/06 04:32:23;;;;;;;11.05;8.18;;;;;;;3.10;60.41;100923.91;4117490;28;20129;-77
2023/04/06 04:34:26;;;;;;;10.73;8.25;;;;;;;3.10;60.78;100924.78;4113170;28;20125;-78
2023/04/06 04:36:29;;;;;;;13.05;8.60;;;;;;;3.09;60.59;100925.56;4131094;28;20054;-77
2023/04/06 04:38:36;;;;;;;12.88;9.25;;;;;;;3.10;60.37;100929.03;4147655;28;20037;-78
2023/04/06 04:40:39;;;;;;;12.38;8.77;;;;;;;3.06;60.94;100927.97;4112943;28;20484;-77
2023/04/06 04:42:44;;;;;;;;;;;;;;;3.02;60.36;100928.63;4116082;28;20047;-78
2023/04/06 04:44:54;;;;;;;11.40;7.97;;;;;;;3.04;59.86;100928.69;4106322;28;19957;-77
2023/04/06 04:47:08;;;;;;;12.95;9.35;;;;;;;3.09;60.29;100929.84;4132263;28;20042;-77
2023/04/06 04:49:21;;;;;;;13.50;9.85;;;;;;;3.07;60.36;100929.75;4113386;28;20121;-77
2023/04/06 04:51:26;;;;;;;12.73;9.07;;;;;;;3.10;59.80;100931.59;4132149;28;20030;-78
2023/04/06 04:53:44;;;;;;;11.85;8.95;;;;;;;3.06;60.13;100925.41;4111500;28;20046;-77
2023/04/06 04:56:01;;;;;;;13.40;9.00;;;;;;;3.09;60.07;100935.84;4112058;28;20130;-79
2023/04/06 04:58:04;;;;;;;13.30;8.75;;;;;;;3.13;59.66;100932.63;4115025;28;20045;-78
2023/04/06 05:00:21;;;;;;;10.60;8.55;;;;;;;3.16;59.50;100929.34;4114430;28;20559;-77
2023/04/06 05:02:25;;;;;;;12.57;9.05;;;;;;;3.17;59.55;100931.13;4131305;28;20419;-77
2023/04/06 05:04:47;;;;;;;12.07;8.30;;;;;;;3.19;59.35;100931.19;4114283;28;20043;-77
2023/04/06 05:07:04;;;;;;;13.40;9.50;;;;;;;3.22;59.21;100939.94;4131377;28;20050;-78
2023/04/06 05:09:09;;;;;;;14.40;7.93;;;;;;;3.23;58.97;100940.84;4111972;28;20085;-78
2023/04/06 05:11:15;;;;;;;11.40;8.50;;;;;;;3.26;58.48;100939.28;4144850;28;20062;-77
2023/04/06 05:13:24;;;;;;;12.38;8.65;;;;;;;3.25;58.61;100939.22;4128678;28;20141;-78
2023/04/06 05:15:29;;;;;;;14.48;9.65;;;;;;;3.24;58.75;100942.59;4134280;28;20042;-78
2023/04/06 05:17:38;;;;;;;12.95;9.38;;;;;;;3.25;58.62;100942.66;4132367;28;20034;-77
2023/04/06 05:19:43;;;;;;;16.92;9.07;;;;;;;3.28;58.25;100942.81;4113971;28;20038;-76
2023/04/06 05:21:48;;;;;;;14.57;8.98;;;;;;;3.26;58.54;100941.00;4112530;28;20094;-77
2023/04/06 05:23:51;;;;;;;12.63;9.68;;;;;;;3.26;58.87;100941.00;4130567;28;20133;-77
2023/04/06 05:25:56;;;;;;;12.55;9.25;;;;;;;3.27;58.47;100950.44;4132052;28;20058;-77
2023/04/06 05:27:59;;;;;;;15.57;9.23;;;;;;;3.26;58.80;100947.00;4122052;28;20038;-78
2023/04/06 05:30:15;;;;;;;11.50;8.38;;;;;;;3.24;58.70;100946.06;4125888;28;20049;-71
2023/04/06 05:32:24;;;;;;;12.75;9.32;;;;;;;3.27;58.85;100946.22;4130830;28;20069;-71
2023/04/06 05:34:28;;;;;;;10.65;8.35;;;;;;;3.24;58.78;100943.50;4152026;28;20087;-71
2023/04/06 05:36:32;;;;;;;12.63;8.82;;;;;;;3.28;59.19;100939.38;4146452;28;20512;-72
2023/04/06 05:38:40;;;;;;;11.73;9.30;;;;;;;3.28;59.30;100944.50;4134412;28;20381;-71
2023/04/06 05:40:53;;;;;;;12.55;7.97;;;;;;;3.30;59.55;100948.94;4127214;28;20054;-71
2023/04/06 05:43:04;;;;;;;13.95;7.95;;;;;;;3.33;58.52;100953.34;4126194;28;20042;-74
2023/04/06 05:45:16;;;;;;;15.75;9.32;;;;;;;3.37;58.93;100955.25;4112724;28;20153;-71
2023/04/06 05:47:23;;;;;;;13.00;9.27;;;;;;;3.42;59.40;100952.94;4129603;28;20047;-72
2023/04/06 05:49:38;;;;;;;12.23;8.52;;;;;;;3.50;59.35;100956.75;4131404;28;20077;-71
2023/04/06 05:51:46;;;;;;;13.57;9.18;;;;;;;3.52;59.60;100957.75;4131278;28;20684;-71
2023/04/06 05:53:49;;;;;;;11.40;8.45;;;;;;;3.54;59.51;100956.13;4113373;28;20142;-71
2023/04/06 05:55:52;;;;;;;12.77;8.25;;;;;;;3.57;59.27;100957.97;4130802;28;20042;-71
2023/04/06 05:57:56;;;;;;;12.60;8.93;;;;;;;3.57;59.38;100951.13;4130860;28;20116;-71
2023/04/06 06:00:01;;;;;;;14.27;9.15;;;;;;;3.63;59.57;100961.72;4115132;28;20078;-71
2023/04/06 06:02:14;;;;;;;11.67;9.00;;;;;;;3.61;59.66;100959.91;4115550;28;20578;-71
2023/04/06 06:04:20;;;;;;;13.77;9.45;;;;;;;3.63;59.91;100958.28;4128380;28;20834;-73
2023/04/06 06:06:28;;;;;;;14.75;9.40;;;;;;;3.69;59.61;100956.00;4129151;28;20074;-74
2023/04/06 06:08:43;;;;;;;10.55;8.25;;;;;;;3.71;60.11;100956.97;4130869;28;20034;-74
2023/04/06 06:10:50;;;;;;;10.95;8.02;;;;;;;3.71;60.48;100951.84;4130997;28;20054;-73
2023/04/06 06:12:56;;;;;;;13.00;9.07;;;;;;;3.75;60.04;100953.75;4130006;28;20052;-71
2023/04/06 06:15:01;;;;;;;12.77;8.52;;;;;;;3.81;60.67;100958.31;4130470;28;20042;-71
2023/04/06 06:17:07;;;;;;;17.95;9.68;;;;;;;3.91;60.46;100957.94;4114780;28;20054;-71
2023/04/06 06:19:10;;;;;;;12.63;8.38;;;;;;;4.01;60.01;100957.59;4113787;28;20160;-72
2023/04/06 06:21:14;;;;;;;15.32;8.57;;;;;;;4.06;59.63;100954.34;4128966;28;20073;-71
2023/04/06 06:23:17;;;;;;;12.43;8.70;;;;;;;4.01;59.91;100960.16;4126026;28;20285;-71
2023/04/06 06:25:21;;;;;;;13.45;9.25;;;;;;;4.07;59.79;100959.56;4125821;28;20042;-71
2023/04/06 06:27:25;;;;;;;16.02;8.73;;;;;;;4.13;59.50;100954.75;4128585;28;20041;-71
2023/04/06 06:29:29;;;;;;;10.90;8.10;;;;;;;4.19;59.26;100951.56;4128984;28;20514;-72
2023/04/06 06:31:33;;;;;;;13.88;9.43;;;;;;;4.27;58.71;100951.94;4112210;28;20062;-72
2023/04/06 06:33:36;;;;;;;14.15;9.45;;;;;;;4.32;58.71;100955.59;4129773;28;20034;-71
2023/04/06 06:35:39;;;;;;;13.75;9.13;;;;;;;4.36;57.55;100952.38;4112969;28;20039;-72
2023/04/06 06:37:42;;;;;;;12.18;8.43;;;;;;;4.39;57.72;100949.94;4095250;29;20106;-72
2023/04/06 06:39:49;;;;;;;12.73;8.32;;;;;;;4.45;57.89;100946.78;4128189;28;20042;-72
2023/04/06 06:41:54;;;;;;;12.68;8.70;;;;;;;4.53;57.40;100946.31;4129923;28;20057;-71
2023/04/06 06:44:16;;;;;;;14.18;8.68;;;;;;;4.55;56.70;100946.41;4127831;28;20034;-72
2023/04/06 06:46:19;;;;;;;13.98;8.82;;;;;;;4.62;56.60;100953.59;4123909;28;20444;-71
2023/04/06 06:48:24;;;;;;;11.80;8.20;;;;;;;4.72;56.63;100950.63;4127044;28;20225;-71
2023/04/06 06:50:27;;;;;;;12.10;8.35;;;;;;;4.78;56.38;100949.16;4130220;28;20042;-72
2023/04/06 06:52:29;;;;;;;11.70;8.43;;;;;;;4.86;56.48;100942.63;4129587;28;20145;-72
2023/04/06 06:54:32;;;;;;;12.10;7.97;;;;;;;4.96;55.70;100949.09;4130297;28;20030;-72
2023/04/06 06:56:37;;;;;;;14.32;8.50;;;;;;;5.04;54.87;100947.75;4115441;28;20043;-72
2023/04/06 06:58:41;;;;;;;15.20;8.55;;;;;;;5.04;55.10;100950.34;4130223;28;20053;-71
2023/04/06 07:00:44;;;;;;;13.75;8.73;;;;;;;5.10;54.89;100954.88;4115358;28;20055;-71
2023/04/06 07:02:47;;;;;;;14.60;8.85;;;;;;;5.20;53.87;100955.34;4129703;28;20405;-72
2023/04/06 07:04:52;;;;;;;13.38;8.40;;;;;;;5.18;54.05;100957.00;4129996;28;20507;-72
2023/04/06 07:06:55;;;;;;;16.73;9.00;;;;;;;5.24;54.12;100953.78;4129423;28;20050;-72
2023/04/06 07:08:58;;;;;;;13.85;9.55;;;;;;;5.28;54.80;100958.25;4114008;28;20564;-73
2023/04/06 07:11:01;;;;;;;15.13;8.82;;;;;;;5.18;52.69;100946.69;4130027;28;20042;-71
2023/04/06 07:13:04;;;;;;;12.55;8.60;;;;;;;5.17;52.86;100947.47;4112179;28;20445;-72
2023/04/06 07:15:09;;;;;;;13.70;8.85;;;;;;;5.26;53.35;100949.56;4126466;28;20129;-72
2023/04/06 07:17:12;;;;;;;12.35;9.38;;;;;;;5.40;53.30;100943.34;4122731;28;20058;-71
2023/04/06 07:19:15;;;;;;;12.38;8.82;;;;;;;5.51;53.12;100943.78;4128741;28;20098;-71
2023/04/06 07:21:20;;;;;;;13.02;8.20;;;;;;;5.60;52.97;100944.16;4112517;28;20054;-72
2023/04/06 07:23:23;;;;;;;16.08;9.10;;;;;;;5.70;53.19;100944.56;4113144;28;20078;-72
2023/04/06 07:25:25;;;;;;;12.43;8.68;;;;;;;5.77;52.98;100944.00;4113974;28;20448;-72
2023/04/06 07:27:28;;;;;;;10.93;8.13;;;;;;;5.81;52.76;100945.00;4112942;28;20053;-72
2023/04/06 07:29:31;;;;;;;15.40;8.93;;;;;;;5.86;52.53;100954.69;4129049;28;20129;-71
2023/04/06 07:31:35;;;;;;;14.80;9.15;;;;;;;6.00;52.84;100949.25;4128187;28;20038;-72
2023/04/06 07:33:39;;;;;;;14.65;9.35;;;;;;;6.09;52.76;100953.09;4127984;28;20034;-71
2023/04/06 07:35:43;;;;;;;14.75;9.25;;;;;;;6.18;51.01;100943.97;4126994;28;20117;-72
2023/04/06 07:37:48;;;;;;;14.23;9.35;;;;;;;6.15;51.38;100948.97;4128633;28;20554;-71
2023/04/06 07:39:51;;;;;;;12.23;9.07;;;;;;;6.20;51.43;100953.50;4128705;28;20563;-72
2023/04/06 07:41:54;;;;;;;14.90;9.38;;;;;;;6.31;51.43;100950.47;4112005;28;20058;-72
2023/04/06 07:43:57;;;;;;;14.35;8.90;;;;;;;6.36;51.07;100955.00;4111598;28;20053;-71
2023/04/06 07:46:00;;;;;;;13.70;9.20;;;;;;;6.38;51.03;100957.63;4106163;28;20097;-72
2023/04/06 07:48:04;;;;;;;14.05;10.15;;;;;;;6.47;50.58;100956.28;4129621;28;20042;-72
2023/04/06 07:50:08;;;;;;;13.05;9.10;;;;;;;6.44;50.95;100960.47;4129856;28;20114;-72
2023/04/06 07:52:12;;;;;;;16.33;8.90;;;;;;;6.39;51.07;100951.66;4131843;28;20148;-71
2023/04/06 07:54:18;;;;;;;14.30;9.93;;;;;;;6.47;50.21;100948.53;4116849;28;20045;-71
2023/04/06 07:56:21;;;;;;;15.73;9.73;;;;;;;6.56;50.39;100944.56;4132651;28;20046;-72
2023/04/06 07:58:24;;;;;;;14.60;9.70;;;;;;;6.63;50.74;100944.84;4118123;28;20520;-71
2023/04/06 08:00:27;;;;;;;16.65;9.55;;;;;;;6.53;50.42;100949.63;4117937;28;20039;-72
2023/04/06 08:02:30;;;;;;;15.18;9.60;;;;;;;6.49;50.45;100945.16;4117208;28;20042;-72
2023/04/06 08:04:33;;;;;;;20.20;10.63;;;;;;;6.55;50.50;100945.38;4116557;28;20466;-72
2023/04/06 08:06:37;;;;;;;13.45;9.80;;;;;;;6.63;50.64;100947.44;4116752;28;20094;-72
2023/04/06 08:08:40;;;;;;;12.43;8.73;;;;;;;6.70;50.70;100948.56;4117924;28;20118;-72
2023/04/06 08:10:44;;;;;;;16.25;11.70;;;;;;;6.89;50.33;100939.78;4116845;28;20078;-71
2023/04/06 08:12:47;;;;;;;13.52;9.27;;;;;;;6.99;50.71;100947.06;4116063;28;20468;-72
2023/04/06 08:14:50;;;;;;;13.65;10.63;;;;;;;7.17;49.91;100943.38;4117243;28;20461;-72
2023/04/06 08:16:53;;;;;;;13.48;9.05;;;;;;;7.24;50.22;100947.94;4117985;28;20050;-72
2023/04/06 08:18:56;;;;;;;15.80;10.38;;;;;;;7.37;49.65;100940.59;4117801;28;20125;-72
2023/04/06 08:20:59;;;;;;;12.57;8.93;;;;;;;7.39;49.42;100939.84;4117303;28;20081;-72
2023/04/06 08:23:02;;;;;;;11.77;9.25;;;;;;;7.54;49.94;100946.38;4116173;28;20138;-72
2023/04/06 08:25:06;;;;;;;13.70;9.13;;;;;;;7.56;49.99;100942.13;4130106;28;20058;-72
2023/04/06 08:27:10;;;;;;;13.15;8.57;;;;;;;7.65;50.22;100948.50;4127753;28;20045;-72
2023/04/06 08:29:13;;;;;;;14.20;9.63;;;;;;;7.75;49.20;100941.91;4132112;28;20053;-72
2023/04/06 08:31:16;;;;;;;15.88;8.98;;;;;;;7.79;49.20;100946.34;4116814;28;20049;-73
2023/04/06 08:33:22;;;;;;;15.27;9.45;;;;;;;7.94;49.86;100947.69;4115739;28;20118;-72
2023/04/06 08:35:27;;;;;;;12.50;9.32;;;;;;;7.97;49.09;100943.50;4115595;28;20035;-72
2023/04/06 08:37:30;;;;;;;14.93;10.02;;;;;;;8.11;48.61;100943.94;4116200;28;20035;-72
2023/04/06 08:39:33;;;;;;;11.63;8.70;;;;;;;8.16;48.95;100944.97;4116224;28;20050;-72
2023/04/06 08:41:38;;;;;;;11.52;9.10;;;;;;;8.23;48.07;100943.44;4116322;28;20046;-72
2023/04/06 08:43:47;;;;;;;14.48;9.77;;;;;;;8.30;47.76;100936.75;4129570;28;20483;-72
2023/04/06 08:45:50;;;;;;;12.75;8.70;;;;;;;8.29;47.51;100945.34;4126375;28;20579;-72
2023/04/06 08:47:55;;;;;;;11.52;9.00;;;;;;;8.36;47.55;100942.13;4116305;28;20167;-71
2023/04/06 08:50:00;;;;;;;11.25;8.07;;;;;;;8.29;46.85;100943.63;4117250;28;20039;-72
2023/04/06 08:52:03;;;;;;;;;;;;;;;8.39;46.80;100937.91;4117749;28;20108;-72
2023/04/06 08:54:05;;;;;;;13.98;9.55;;;;;;;8.54;46.46;100926.28;4116860;28;19929;-72
2023/04/06 08:56:11;;;;;;;12.85;8.50;;;;;;;8.56;46.74;100935.00;4132310;28;20476;-72
2023/04/06 08:58:14;;;;;;;11.32;7.95;;;;;;;8.72;46.89;100932.03;4115958;28;20081;-72
2023/04/06 09:00:37;;;;;;;10.70;8.13;;;;;;;8.85;47.07;100930.66;4117390;28;20430;-72
2023/04/06 09:02:44;;;;;;;11.55;8.30;;;;;;;8.98;47.32;100924.13;4131282;28;20039;-72
2023/04/06 09:04:49;;;;;;;12.13;8.32;;;;;;;9.13;47.01;100915.03;4116452;28;20053;-72
2023/04/06 09:06:52;;;;;;;;;;;;;;;9.23;45.52;100915.31;4117728;28;20058;-72
2023/04/06 09:08:56;;;;;;;11.18;7.93;;;;;;;9.25;46.14;100915.34;4117053;28;20347;-72
2023/04/06 09:10:59;;;;;;;12.10;8.07;;;;;;;9.45;46.18;100918.47;4117226;28;20045;-72
2023/04/06 09:13:06;;;;;;;12.45;7.95;;;;;;;9.49;45.87;100922.00;4116784;28;20510;-72
2023/04/06 09:15:19;;;;;;;10.20;7.85;;;;;;;9.64;45.45;100917.22;4116996;28;20408;-72
2023/04/06 09:17:29;;;;;;;13.80;7.72;;;;;;;9.64;44.91;100924.13;4114974;28;20039;-72
2023/04/06 09:19:32;;;;;;;12.15;7.70;;;;;;;9.70;44.69;100922.56;4131574;28;20135;-72
2023/04/06 09:21:35;;;;;;;10.75;7.70;;;;;;;9.78;44.79;100918.44;4116227;28;20543;-72
2023/04/06 09:23:39;;;;;;;11.55;7.63;;;;;;;9.91;45.04;100919.59;4115052;28;20464;-72
2023/04/06 09:25:42;;;;;;;9.93;6.85;;;;;;;10.08;45.60;100916.56;4115870;28;20053;-72
2023/04/06 09:27:45;;;;;;;13.38;8.88;;;;;;;10.24;44.13;100915.19;4115477;28;20126;-72
2023/04/06 09:29:48;;;;;;;13.38;8.25;;;;;;;10.27;43.49;100917.84;4114617;28;20512;-72
2023/04/06 09:31:51;;;;;;;10.70;7.50;;;;;;;10.38;44.13;100919.03;4115793;28;20564;-72
2023/04/06 09:33:56;;;;;;;12.65;7.20;;;;;;;10.46;43.56;100917.44;4114731;28;20035;-72
2023/04/06 09:35:59;;;;;;;;;;;;;;;10.52;43.88;100908.91;4115791;28;20501;-72
2023/04/06 09:38:12;;;;;;;13.25;7.35;;;;;;;10.66;44.19;100911.81;4115088;28;20427;-72
2023/04/06 09:40:17;;;;;;;9.38;6.30;;;;;;;10.63;43.88;100909.13;4130036;28;20048;-72
2023/04/06 09:42:26;;;;;;;12.07;8.13;;;;;;;10.61;42.49;100921.22;4114375;28;20034;-72
2023/04/06 09:44:31;;;;;;;12.45;7.10;;;;;;;10.75;42.51;100909.41;4113406;28;20125;-72
2023/04/06 09:46:35;;;;;;;11.60;8.05;;;;;;;10.93;41.84;100898.47;4115025;28;20540;-72